Yong Yue 7 — BKPG4 — position and weather

sailwx.info

Track history (hours):
 
Tides and Currents Weather Stations Pressure Air Temp Water Temp Dewpoint Dewpoint Depression Visibility Wind Speed Wind Dir Waves Ship Positions

Yong Yue 7

Last reported at 2018-Feb-16 15:19 UTC. Time now 2018-Feb-22 22:52 UTC.
Position N 34°01' E 129°50'.

Length 133 m; draft 6.4 m.

Type: Cargo ship. MMSI: 413415730.

Date/timePositionNaut miles runAvg speedWind from/ knotsBaromVisibWave heightAir tempDewpointWater temp
2018-Feb-16 15:19N 34°01' E 129°50'410.9
2018-Feb-16 14:59N 34°01' E 129°55'511.2
2018-Feb-16 14:30N 34°01' E 130°01'611.2
2018-Feb-16 14:00N 34°01' E 130°08'611.2
2018-Feb-16 13:30N 34°02' E 130°15'611.3
2018-Feb-16 13:00N 34°02' E 130°22'611.5
2018-Feb-16 12:30N 34°03' E 130°28'611.7
2018-Feb-16 12:00N 34°03' E 130°36'611.9
2018-Feb-16 11:30N 34°03' E 130°43'612.2
2018-Feb-16 10:59N 34°01' E 130°50'510.0
2018-Feb-16 10:31N 33°57' E 130°52'4 7.0
2018-Feb-16 10:00N 33°57' E 130°56'4 7.8
2018-Feb-16 09:30N 33°58' E 131°01'0 0.2
2018-Feb-16 08:58N 33°58' E 131°01'0 0.0
2018-Feb-16 08:28N 33°58' E 131°01'0 0.0
2018-Feb-16 07:58N 33°58' E 131°01'0 0.0
2018-Feb-16 07:28N 33°58' E 131°01'0 0.0
2018-Feb-16 06:52N 33°58' E 131°01'0 0.0
2018-Feb-16 06:25N 33°58' E 131°01'0 0.0
2018-Feb-16 05:58N 33°58' E 131°01'0 0.0
2018-Feb-16 05:21N 33°58' E 131°01'0 0.2
2018-Feb-16 05:01N 33°58' E 131°01'3 6.4
2018-Feb-16 04:30N 33°57' E 130°57'4 7.1
2018-Feb-16 04:01N 33°55' E 130°54'5 9.1
2018-Feb-16 03:31N 33°58' E 130°50'3 5.8
2018-Feb-16 03:01N 34°01' E 130°50'3 6.8
2018-Feb-16 02:30N 34°02' E 130°46'611.8
2018-Feb-16 02:01N 34°02' E 130°39'612.6
2018-Feb-16 01:31N 33°60' E 130°32'612.2
2018-Feb-16 01:00N 33°57' E 130°25'611.4
2018-Feb-16 00:31N 33°54' E 130°20'612.1
2018-Feb-16 00:00N 33°48' E 130°17'612.2
2018-Feb-15 23:30N 33°42' E 130°16'510.7
2018-Feb-15 23:01N 33°38' E 130°20'4 7.9
2018-Feb-15 22:31N 33°39' E 130°25'0 0.0
2018-Feb-15 22:01N 33°39' E 130°25'0 0.0
2018-Feb-15 21:29N 33°39' E 130°25'0 0.0
2018-Feb-15 20:59N 33°39' E 130°25'0 0.0
2018-Feb-15 20:29N 33°39' E 130°25'0 0.0
2018-Feb-15 19:59N 33°39' E 130°25'0 0.0
2018-Feb-15 19:29N 33°39' E 130°25'0 0.0
2018-Feb-15 18:59N 33°39' E 130°25'0 0.0
2018-Feb-15 18:26N 33°39' E 130°25'0 0.0
2018-Feb-15 17:59N 33°39' E 130°25'0 0.0
2018-Feb-15 17:29N 33°39' E 130°25'0 0.0
2018-Feb-15 16:59N 33°39' E 130°25'0 0.0
2018-Feb-15 16:29N 33°39' E 130°25'0 0.0
2018-Feb-15 15:59N 33°39' E 130°25'0 0.7
2018-Feb-15 15:30N 33°39' E 130°24'5 9.3
2018-Feb-15 15:01N 33°39' E 130°19'3 5.8
2018-Feb-15 14:30N 33°41' E 130°16'510.4
2018-Feb-15 14:00N 33°45' E 130°13'611.7
2018-Feb-15 13:30N 33°48' E 130°06'612.3
2018-Feb-15 13:00N 33°50' E 129°59'  
2018-Feb-12 14:35N 37°32' E 122°16'111.5
2018-Feb-12 14:30N 37°31' E 122°16'510.0
2018-Feb-12 13:57N 37°27' E 122°12'0 0.1
2018-Feb-12 13:30N 37°27' E 122°12'0 0.0
2018-Feb-12 04:16N 37°27' E 122°12'0 1.2
2018-Feb-12 03:53N 37°27' E 122°11'4 8.5
2018-Feb-12 03:24N 37°30' E 122°15'3 7.0
2018-Feb-12 02:59N 37°32' E 122°18'0 0.2
2018-Feb-12 02:28N 37°32' E 122°18'0 0.0
2018-Feb-12 01:55N 37°32' E 122°18'0 0.0
2018-Feb-12 01:25N 37°32' E 122°18'0 0.0
2018-Feb-12 01:00N 37°32' E 122°18'0 0.0
2018-Feb-12 00:30N 37°32' E 122°18'0 0.0
2018-Feb-12 00:00N 37°32' E 122°18'0 0.0
2018-Feb-11 23:30N 37°32' E 122°18'0 0.0
2018-Feb-11 22:57N 37°32' E 122°18'0 0.0
2018-Feb-11 22:24N 37°32' E 122°18'0 0.0
2018-Feb-11 21:54N 37°32' E 122°18'0 0.0
2018-Feb-11 21:30N 37°32' E 122°18'0 0.0
2018-Feb-11 20:48N 37°32' E 122°18'0 0.0
2018-Feb-11 20:24N 37°32' E 122°18'0 0.0
2018-Feb-11 19:51N 37°32' E 122°18'0 0.0
2018-Feb-11 19:24N 37°32' E 122°18'0 0.0
2018-Feb-11 18:06N 37°32' E 122°18'0 0.0
2018-Feb-11 17:45N 37°32' E 122°18'0 0.0
2018-Feb-11 17:24N 37°32' E 122°18'0 0.0
2018-Feb-11 17:00N 37°32' E 122°18'0 0.0
2018-Feb-11 16:30N 37°32' E 122°18'0 0.0
2018-Feb-11 15:57N 37°32' E 122°18'0 0.0
2018-Feb-11 15:27N 37°32' E 122°18'0 0.0
2018-Feb-11 14:54N 37°32' E 122°18'0 0.0
2018-Feb-11 14:24N 37°32' E 122°18'0 0.0
2018-Feb-11 13:57N 37°32' E 122°18'0 0.2
2018-Feb-11 13:30N 37°32' E 122°18'  
2018-Feb-09 01:00N 33°51' E 130°07'1811.7
2018-Feb-08 23:30N 33°38' E 130°21'3 6.7
2018-Feb-08 23:00N 33°39' E 130°24'10 0.8
2018-Feb-08 11:00N 33°45' E 130°15'5 9.4
2018-Feb-08 10:30N 33°50' E 130°18'5 9.5
2018-Feb-08 10:00N 33°54' E 130°20'9 9.4
2018-Feb-08 09:00N 33°59' E 130°29'19 9.7
2018-Feb-08 07:00N 33°60' E 130°53'7 1.3
2018-Feb-08 01:29N 33°58' E 131°01'0 0.0
2018-Feb-08 00:59N 33°58' E 131°01'0 0.0
2018-Feb-08 00:26N 33°58' E 131°01'0 0.0
2018-Feb-07 23:59N 33°58' E 131°01'0 0.0
2018-Feb-07 23:29N 33°58' E 131°01'0 0.0
2018-Feb-07 23:00N 33°58' E 131°01'1 2.7
2018-Feb-07 22:30N 33°58' E 130°59'510.8
2018-Feb-07 22:00N 33°54' E 130°55'510.7
2018-Feb-07 21:31N 33°58' E 130°50'  
Track history (hours):
 
Tides and Currents Weather Stations Pressure Air Temp Water Temp Dewpoint Dewpoint Depression Visibility Wind Speed Wind Dir Waves Ship Positions

Yong Yue 7

Last reported at 2018-Feb-16 15:19 UTC. Time now 2018-Feb-22 22:52 UTC.
Position N 34°01' E 129°50'.

Length 133 m; draft 6.4 m.

Type: Cargo ship. MMSI: 413415730.

Date/timePositionNaut miles runAvg speedWind from/ knotsBaromVisibWave heightAir tempDewpointWater temp
2018-Feb-16 15:19N 34°01' E 129°50'410.9
2018-Feb-16 14:59N 34°01' E 129°55'511.2
2018-Feb-16 14:30N 34°01' E 130°01'611.2
2018-Feb-16 14:00N 34°01' E 130°08'611.2
2018-Feb-16 13:30N 34°02' E 130°15'611.3
2018-Feb-16 13:00N 34°02' E 130°22'611.5
2018-Feb-16 12:30N 34°03' E 130°28'611.7
2018-Feb-16 12:00N 34°03' E 130°36'611.9
2018-Feb-16 11:30N 34°03' E 130°43'612.2
2018-Feb-16 10:59N 34°01' E 130°50'510.0
2018-Feb-16 10:31N 33°57' E 130°52'4 7.0
2018-Feb-16 10:00N 33°57' E 130°56'4 7.8
2018-Feb-16 09:30N 33°58' E 131°01'0 0.2
2018-Feb-16 08:58N 33°58' E 131°01'0 0.0
2018-Feb-16 08:28N 33°58' E 131°01'0 0.0
2018-Feb-16 07:58N 33°58' E 131°01'0 0.0
2018-Feb-16 07:28N 33°58' E 131°01'0 0.0
2018-Feb-16 06:52N 33°58' E 131°01'0 0.0
2018-Feb-16 06:25N 33°58' E 131°01'0 0.0
2018-Feb-16 05:58N 33°58' E 131°01'0 0.0
2018-Feb-16 05:21N 33°58' E 131°01'0 0.2
2018-Feb-16 05:01N 33°58' E 131°01'3 6.4
2018-Feb-16 04:30N 33°57' E 130°57'4 7.1
2018-Feb-16 04:01N 33°55' E 130°54'5 9.1
2018-Feb-16 03:31N 33°58' E 130°50'3 5.8
2018-Feb-16 03:01N 34°01' E 130°50'3 6.8
2018-Feb-16 02:30N 34°02' E 130°46'611.8
2018-Feb-16 02:01N 34°02' E 130°39'612.6
2018-Feb-16 01:31N 33°60' E 130°32'612.2
2018-Feb-16 01:00N 33°57' E 130°25'611.4
2018-Feb-16 00:31N 33°54' E 130°20'612.1
2018-Feb-16 00:00N 33°48' E 130°17'612.2
2018-Feb-15 23:30N 33°42' E 130°16'510.7
2018-Feb-15 23:01N 33°38' E 130°20'4 7.9
2018-Feb-15 22:31N 33°39' E 130°25'0 0.0
2018-Feb-15 22:01N 33°39' E 130°25'0 0.0
2018-Feb-15 21:29N 33°39' E 130°25'0 0.0
2018-Feb-15 20:59N 33°39' E 130°25'0 0.0
2018-Feb-15 20:29N 33°39' E 130°25'0 0.0
2018-Feb-15 19:59N 33°39' E 130°25'0 0.0
2018-Feb-15 19:29N 33°39' E 130°25'0 0.0
2018-Feb-15 18:59N 33°39' E 130°25'0 0.0
2018-Feb-15 18:26N 33°39' E 130°25'0 0.0
2018-Feb-15 17:59N 33°39' E 130°25'0 0.0
2018-Feb-15 17:29N 33°39' E 130°25'0 0.0
2018-Feb-15 16:59N 33°39' E 130°25'0 0.0
2018-Feb-15 16:29N 33°39' E 130°25'0 0.0
2018-Feb-15 15:59N 33°39' E 130°25'0 0.7
2018-Feb-15 15:30N 33°39' E 130°24'5 9.3
2018-Feb-15 15:01N 33°39' E 130°19'3 5.8
2018-Feb-15 14:30N 33°41' E 130°16'510.4
2018-Feb-15 14:00N 33°45' E 130°13'611.7
2018-Feb-15 13:30N 33°48' E 130°06'612.3
2018-Feb-15 13:00N 33°50' E 129°59'  
2018-Feb-12 14:35N 37°32' E 122°16'111.5
2018-Feb-12 14:30N 37°31' E 122°16'510.0
2018-Feb-12 13:57N 37°27' E 122°12'0 0.1
2018-Feb-12 13:30N 37°27' E 122°12'0 0.0
2018-Feb-12 04:16N 37°27' E 122°12'0 1.2
2018-Feb-12 03:53N 37°27' E 122°11'4 8.5
2018-Feb-12 03:24N 37°30' E 122°15'3 7.0
2018-Feb-12 02:59N 37°32' E 122°18'0 0.2
2018-Feb-12 02:28N 37°32' E 122°18'0 0.0
2018-Feb-12 01:55N 37°32' E 122°18'0 0.0
2018-Feb-12 01:25N 37°32' E 122°18'0 0.0
2018-Feb-12 01:00N 37°32' E 122°18'0 0.0
2018-Feb-12 00:30N 37°32' E 122°18'0 0.0
2018-Feb-12 00:00N 37°32' E 122°18'0 0.0
2018-Feb-11 23:30N 37°32' E 122°18'0 0.0
2018-Feb-11 22:57N 37°32' E 122°18'0 0.0
2018-Feb-11 22:24N 37°32' E 122°18'0 0.0
2018-Feb-11 21:54N 37°32' E 122°18'0 0.0
2018-Feb-11 21:30N 37°32' E 122°18'0 0.0
2018-Feb-11 20:48N 37°32' E 122°18'0 0.0
2018-Feb-11 20:24N 37°32' E 122°18'0 0.0
2018-Feb-11 19:51N 37°32' E 122°18'0 0.0
2018-Feb-11 19:24N 37°32' E 122°18'0 0.0
2018-Feb-11 18:06N 37°32' E 122°18'0 0.0
2018-Feb-11 17:45N 37°32' E 122°18'0 0.0
2018-Feb-11 17:24N 37°32' E 122°18'0 0.0
2018-Feb-11 17:00N 37°32' E 122°18'0 0.0
2018-Feb-11 16:30N 37°32' E 122°18'0 0.0
2018-Feb-11 15:57N 37°32' E 122°18'0 0.0
2018-Feb-11 15:27N 37°32' E 122°18'0 0.0
2018-Feb-11 14:54N 37°32' E 122°18'0 0.0
2018-Feb-11 14:24N 37°32' E 122°18'0 0.0
2018-Feb-11 13:57N 37°32' E 122°18'0 0.2
2018-Feb-11 13:30N 37°32' E 122°18'  
2018-Feb-09 01:00N 33°51' E 130°07'1811.7
2018-Feb-08 23:30N 33°38' E 130°21'3 6.7
2018-Feb-08 23:00N 33°39' E 130°24'10 0.8
2018-Feb-08 11:00N 33°45' E 130°15'5 9.4
2018-Feb-08 10:30N 33°50' E 130°18'5 9.5
2018-Feb-08 10:00N 33°54' E 130°20'9 9.4
2018-Feb-08 09:00N 33°59' E 130°29'19 9.7
2018-Feb-08 07:00N 33°60' E 130°53'7 1.3
2018-Feb-08 01:29N 33°58' E 131°01'0 0.0
2018-Feb-08 00:59N 33°58' E 131°01'0 0.0
2018-Feb-08 00:26N 33°58' E 131°01'0 0.0
2018-Feb-07 23:59N 33°58' E 131°01'0 0.0
2018-Feb-07 23:29N 33°58' E 131°01'0 0.0
2018-Feb-07 23:00N 33°58' E 131°01'1 2.7
2018-Feb-07 22:30N 33°58' E 130°59'510.8
2018-Feb-07 22:00N 33°54' E 130°55'510.7
2018-Feb-07 21:31N 33°58' E 130°50'  

Dump ship's entire track history